Time;durP1;ratioP1;P1;durP2;ratioP2;P2;SDS_P1;SDS_P2;PMS_P1;PMS_P2;Temp;Humidity;BMP_temperature;BMP_pressure;BME280_temperature;BME280_humidity;BME280_pressure;Samples;Min_cycle;Max_cycle;Signal;HPM_P1;HPM_P2
2021/05/09 00:01:02;;;;;;;1.90;1.80;;;;;;;;;;5033355;28;20388;-45
2021/05/09 00:03:28;;;;;;;1.60;1.50;;;;;;;;;;5029583;28;20516;-46
2021/05/09 00:05:55;;;;;;;1.67;1.58;;;;;;;;;;5021276;28;20053;-47
2021/05/09 00:08:21;;;;;;;1.63;1.35;;;;;;;;;;5028679;28;20038;-44
2021/05/09 00:10:47;;;;;;;2.05;1.95;;;;;;;;;;5023835;28;20045;-46
2021/05/09 00:13:13;;;;;;;2.72;2.50;;;;;;;;;;5025051;28;20119;-48
2021/05/09 00:15:39;;;;;;;1.92;1.83;;;;;;;;;;5027211;28;20079;-45
2021/05/09 00:18:06;;;;;;;1.60;1.50;;;;;;;;;;5029575;28;20084;-46
2021/05/09 00:20:32;;;;;;;2.35;2.15;;;;;;;;;;5031330;28;20418;-47
2021/05/09 00:22:59;;;;;;;2.25;1.75;;;;;;;;;;5022880;28;20048;-44
2021/05/09 00:25:25;;;;;;;3.63;3.33;;;;;;;;;;5028862;28;20033;-47
2021/05/09 00:27:51;;;;;;;2.30;2.10;;;;;;;;;;5029890;28;20037;-44
2021/05/09 00:30:19;;;;;;;1.85;1.80;;;;;;;;;;5032157;28;20037;-48
2021/05/09 00:32:45;;;;;;;1.95;1.85;;;;;;;;;;5032890;28;20037;-47
2021/05/09 00:35:12;;;;;;;2.05;1.92;;;;;;;;;;5028019;28;20039;-45
2021/05/09 00:37:39;;;;;;;6.10;1.65;;;;;;;;;;5014571;28;20042;-44
2021/05/09 00:40:07;;;;;;;1.83;1.73;;;;;;;;;;5029842;28;20052;-45
2021/05/09 00:42:33;;;;;;;1.80;1.70;;;;;;;;;;5032364;28;20033;-49
2021/05/09 00:44:59;;;;;;;1.75;1.65;;;;;;;;;;5020320;28;20160;-45
2021/05/09 00:47:26;;;;;;;2.85;2.65;;;;;;;;;;5024877;28;20077;-45
2021/05/09 00:49:52;;;;;;;3.08;2.25;;;;;;;;;;5029662;28;20045;-45
2021/05/09 00:52:19;;;;;;;2.75;1.95;;;;;;;;;;5025279;28;20045;-45
2021/05/09 00:54:49;;;;;;;2.83;1.65;;;;;;;;;;5019475;28;20049;-48
2021/05/09 00:57:15;;;;;;;2.13;1.98;;;;;;;;;;5017700;28;20030;-46
2021/05/09 00:59:43;;;;;;;3.72;2.50;;;;;;;;;;5025450;28;20037;-45
2021/05/09 01:02:12;;;;;;;3.47;2.40;;;;;;;;;;5029493;28;20038;-45
2021/05/09 01:04:40;;;;;;;2.03;1.90;;;;;;;;;;5022951;28;20038;-48
2021/05/09 01:07:07;;;;;;;4.25;2.53;;;;;;;;;;5029577;28;20037;-46
2021/05/09 01:09:34;;;;;;;4.40;2.70;;;;;;;;;;5032022;28;20091;-47
2021/05/09 01:12:01;;;;;;;4.43;2.55;;;;;;;;;;5025908;28;20084;-44
2021/05/09 01:14:28;;;;;;;2.83;2.08;;;;;;;;;;5027823;28;20045;-45
2021/05/09 01:16:56;;;;;;;3.10;1.77;;;;;;;;;;5031253;28;20033;-48
2021/05/09 01:19:24;;;;;;;1.98;1.88;;;;;;;;;;5029494;28;20029;-43
2021/05/09 01:21:51;;;;;;;2.38;2.28;;;;;;;;;;5015205;28;20034;-47
2021/05/09 01:24:18;;;;;;;2.20;2.03;;;;;;;;;;5025238;28;20426;-46
2021/05/09 01:26:45;;;;;;;1.75;1.70;;;;;;;;;;5028734;28;20034;-44
2021/05/09 01:29:11;;;;;;;1.88;1.77;;;;;;;;;;5030619;28;20068;-47
2021/05/09 01:31:38;;;;;;;3.03;2.30;;;;;;;;;;5028957;28;20436;-45
2021/05/09 01:34:05;;;;;;;2.55;1.90;;;;;;;;;;5028046;28;20045;-45
2021/05/09 01:36:32;;;;;;;4.20;2.40;;;;;;;;;;5024112;28;20482;-44
2021/05/09 01:38:58;;;;;;;1.70;1.55;;;;;;;;;;5016212;28;20057;-46
2021/05/09 01:41:24;;;;;;;2.83;2.65;;;;;;;;;;5031034;28;20569;-46
2021/05/09 01:43:50;;;;;;;2.28;2.17;;;;;;;;;;5029470;28;20124;-46
2021/05/09 01:46:17;;;;;;;4.47;2.83;;;;;;;;;;5021747;28;20072;-44
2021/05/09 01:48:43;;;;;;;2.33;2.13;;;;;;;;;;5028781;28;20486;-44
2021/05/09 01:51:10;;;;;;;2.65;2.38;;;;;;;;;;5029802;28;20036;-46
2021/05/09 01:53:36;;;;;;;3.95;2.03;;;;;;;;;;5030123;28;20092;-50
2021/05/09 01:56:03;;;;;;;2.50;1.60;;;;;;;;;;5028166;28;20136;-43
2021/05/09 01:58:29;;;;;;;2.90;2.22;;;;;;;;;;5029596;28;20053;-47
2021/05/09 02:00:56;;;;;;;2.17;2.05;;;;;;;;;;5030011;28;20056;-46
2021/05/09 02:03:23;;;;;;;2.35;2.20;;;;;;;;;;5029795;28;20049;-46
2021/05/09 02:05:49;;;;;;;2.30;2.10;;;;;;;;;;5029948;28;20065;-44
2021/05/09 02:08:16;;;;;;;2.03;1.92;;;;;;;;;;5026107;28;20037;-46
2021/05/09 02:10:43;;;;;;;2.10;2.00;;;;;;;;;;5024642;28;20075;-45
2021/05/09 02:13:09;;;;;;;3.00;1.90;;;;;;;;;;5022650;28;20042;-46
2021/05/09 02:15:36;;;;;;;3.63;2.10;;;;;;;;;;5027810;28;20113;-43
2021/05/09 02:18:03;;;;;;;2.85;2.75;;;;;;;;;;5029925;28;20121;-44
2021/05/09 02:20:29;;;;;;;3.22;1.80;;;;;;;;;;5028177;28;20045;-47
2021/05/09 02:22:56;;;;;;;2.10;1.90;;;;;;;;;;5024349;28;20145;-47
2021/05/09 02:25:23;;;;;;;2.20;1.70;;;;;;;;;;5025304;28;20137;-45
2021/05/09 02:27:55;;;;;;;2.28;2.17;;;;;;;;;;5028939;28;20041;-46
2021/05/09 02:30:22;;;;;;;1.63;1.52;;;;;;;;;;5016290;28;20716;-46
2021/05/09 02:32:49;;;;;;;1.90;1.90;;;;;;;;;;5025807;28;20045;-48
2021/05/09 02:35:16;;;;;;;2.38;2.28;;;;;;;;;;5028344;28;20041;-49
2021/05/09 02:37:43;;;;;;;3.25;2.92;;;;;;;;;;5020045;28;20033;-45
2021/05/09 02:40:10;;;;;;;2.67;2.58;;;;;;;;;;5027706;28;20393;-47
2021/05/09 02:42:36;;;;;;;2.25;2.15;;;;;;;;;;5030364;28;20391;-45
2021/05/09 02:45:04;;;;;;;3.45;2.47;;;;;;;;;;5027153;28;20045;-44
2021/05/09 02:47:32;;;;;;;3.10;2.67;;;;;;;;;;5027811;28;20041;-44
2021/05/09 02:50:00;;;;;;;2.40;2.30;;;;;;;;;;5016610;28;20058;-48
2021/05/09 02:52:27;;;;;;;2.25;2.08;;;;;;;;;;5022472;28;20053;-46
2021/05/09 02:54:55;;;;;;;2.60;2.47;;;;;;;;;;5015733;28;20030;-45
2021/05/09 02:57:22;;;;;;;2.05;1.92;;;;;;;;;;5026056;28;20033;-44
2021/05/09 02:59:49;;;;;;;4.13;2.78;;;;;;;;;;5018022;28;20478;-45
2021/05/09 03:02:15;;;;;;;3.03;2.83;;;;;;;;;;5016535;28;20068;-44
2021/05/09 03:04:43;;;;;;;3.95;2.90;;;;;;;;;;5024439;28;20033;-44
2021/05/09 03:07:10;;;;;;;2.50;2.30;;;;;;;;;;5026623;28;20387;-44
2021/05/09 03:09:37;;;;;;;3.13;2.15;;;;;;;;;;5029904;28;20037;-48
2021/05/09 03:12:04;;;;;;;2.03;2.03;;;;;;;;;;5027390;28;20095;-50
2021/05/09 03:14:31;;;;;;;2.55;2.45;;;;;;;;;;5016903;28;20069;-45
2021/05/09 03:16:57;;;;;;;2.30;2.20;;;;;;;;;;5022024;28;20409;-47
2021/05/09 03:19:25;;;;;;;2.53;2.33;;;;;;;;;;5027123;28;20040;-43
2021/05/09 03:21:52;;;;;;;2.20;2.13;;;;;;;;;;5029329;28;20052;-45
2021/05/09 03:24:22;;;;;;;2.08;1.98;;;;;;;;;;5026599;28;20038;-49
2021/05/09 03:26:49;;;;;;;2.10;2.03;;;;;;;;;;5030124;28;20050;-44
2021/05/09 03:29:16;;;;;;;2.60;2.50;;;;;;;;;;5026127;28;20500;-49
2021/05/09 03:31:43;;;;;;;4.10;2.63;;;;;;;;;;5028208;28;20128;-44
2021/05/09 03:34:10;;;;;;;3.80;2.20;;;;;;;;;;5027777;28;20095;-46
2021/05/09 03:36:38;;;;;;;1.95;1.95;;;;;;;;;;5027859;28;20498;-50
2021/05/09 03:39:05;;;;;;;2.63;2.42;;;;;;;;;;5024632;28;20454;-48
2021/05/09 03:41:31;;;;;;;2.72;2.63;;;;;;;;;;5026931;28;20045;-48
2021/05/09 03:43:58;;;;;;;5.72;2.75;;;;;;;;;;5015121;28;20432;-48
2021/05/09 03:46:24;;;;;;;2.53;2.33;;;;;;;;;;5028917;28;20056;-47
2021/05/09 03:48:50;;;;;;;3.17;3.08;;;;;;;;;;5024333;28;20055;-44
2021/05/09 03:51:16;;;;;;;2.80;2.70;;;;;;;;;;5021591;28;20045;-48
2021/05/09 03:53:43;;;;;;;2.03;1.95;;;;;;;;;;5026364;28;20049;-46
2021/05/09 03:56:11;;;;;;;3.20;2.90;;;;;;;;;;5028962;28;20052;-49
2021/05/09 03:58:38;;;;;;;2.80;2.22;;;;;;;;;;5024747;28;20040;-44
2021/05/09 04:01:06;;;;;;;3.20;2.72;;;;;;;;;;5027535;28;20041;-44
2021/05/09 04:03:35;;;;;;;2.83;2.63;;;;;;;;;;5018604;28;20034;-49
2021/05/09 04:06:03;;;;;;;2.70;2.50;;;;;;;;;;5027823;28;20029;-46
2021/05/09 04:08:29;;;;;;;2.50;2.40;;;;;;;;;;5027828;28;20046;-45
2021/05/09 04:10:57;;;;;;;2.50;2.40;;;;;;;;;;5026008;28;20034;-49
2021/05/09 04:13:24;;;;;;;3.17;2.63;;;;;;;;;;5024926;28;20378;-45
2021/05/09 04:15:50;;;;;;;3.72;2.72;;;;;;;;;;5027013;28;20029;-47
2021/05/09 04:18:17;;;;;;;2.78;2.67;;;;;;;;;;5027462;28;20059;-45
2021/05/09 04:20:43;;;;;;;2.45;2.30;;;;;;;;;;5024417;28;20045;-48
2021/05/09 04:23:11;;;;;;;3.17;2.78;;;;;;;;;;5029250;28;20046;-47
2021/05/09 04:25:39;;;;;;;2.80;2.70;;;;;;;;;;5025511;28;20037;-46
2021/05/09 04:28:08;;;;;;;2.45;2.35;;;;;;;;;;5029362;28;20041;-46
2021/05/09 04:30:36;;;;;;;2.90;2.72;;;;;;;;;;5030471;28;20049;-44
2021/05/09 04:33:05;;;;;;;7.07;3.03;;;;;;;;;;5030496;28;20041;-46
2021/05/09 04:35:33;;;;;;;2.40;2.30;;;;;;;;;;5033098;28;20041;-47
2021/05/09 04:38:01;;;;;;;2.38;2.17;;;;;;;;;;5024229;28;20116;-47
2021/05/09 04:40:30;;;;;;;3.38;3.17;;;;;;;;;;5024321;28;20042;-48
2021/05/09 04:43:06;;;;;;;3.08;2.83;;;;;;;;;;5025888;28;20670;-44
2021/05/09 04:45:34;;;;;;;2.95;2.75;;;;;;;;;;5030109;28;20038;-48
2021/05/09 04:48:04;;;;;;;6.03;2.90;;;;;;;;;;5028814;28;20030;-48
2021/05/09 04:50:31;;;;;;;2.22;2.13;;;;;;;;;;5031032;28;20087;-49
2021/05/09 04:52:57;;;;;;;3.10;2.78;;;;;;;;;;5029913;28;20160;-46
2021/05/09 04:55:24;;;;;;;3.00;2.90;;;;;;;;;;5020503;28;20050;-50
2021/05/09 04:57:50;;;;;;;2.50;2.40;;;;;;;;;;5024828;28;20037;-44
2021/05/09 05:00:17;;;;;;;4.45;4.03;;;;;;;;;;5016226;28;20045;-46
2021/05/09 05:02:44;;;;;;;2.75;2.55;;;;;;;;;;5031182;28;20039;-44
2021/05/09 05:05:11;;;;;;;3.00;2.95;;;;;;;;;;5030183;28;20041;-45
2021/05/09 05:07:38;;;;;;;5.60;2.60;;;;;;;;;;5032216;28;20460;-44
2021/05/09 05:10:04;;;;;;;2.60;2.50;;;;;;;;;;5028632;28;20084;-45
2021/05/09 05:12:31;;;;;;;2.55;2.45;;;;;;;;;;5031526;28;20482;-49
2021/05/09 05:14:58;;;;;;;3.05;2.70;;;;;;;;;;5030339;28;20533;-48
2021/05/09 05:17:24;;;;;;;3.03;2.83;;;;;;;;;;5029506;28;20079;-46
2021/05/09 05:19:51;;;;;;;3.28;3.08;;;;;;;;;;5031050;28;20347;-44
2021/05/09 05:22:17;;;;;;;3.78;3.50;;;;;;;;;;5027352;28;20142;-45
2021/05/09 05:24:44;;;;;;;5.20;2.88;;;;;;;;;;5031158;28;20060;-47
2021/05/09 05:27:11;;;;;;;2.15;2.05;;;;;;;;;;5031409;28;20038;-48
2021/05/09 05:29:38;;;;;;;2.45;2.35;;;;;;;;;;5029858;28;20543;-44
2021/05/09 05:32:06;;;;;;;4.82;2.45;;;;;;;;;;5029066;28;20084;-47
2021/05/09 05:34:32;;;;;;;2.30;2.20;;;;;;;;;;5024772;28;20053;-44
2021/05/09 05:36:59;;;;;;;2.40;2.30;;;;;;;;;;5025572;28;20777;-44
2021/05/09 05:39:25;;;;;;;3.90;2.42;;;;;;;;;;5019997;28;20036;-43
2021/05/09 05:41:53;;;;;;;2.45;2.25;;;;;;;;;;5028668;28;20367;-44
2021/05/09 05:44:20;;;;;;;2.55;2.35;;;;;;;;;;5032059;28;20501;-47
2021/05/09 05:46:49;;;;;;;3.08;2.88;;;;;;;;;;5020867;28;20045;-47
2021/05/09 05:49:16;;;;;;;3.75;2.15;;;;;;;;;;5021192;28;20060;-47
2021/05/09 05:51:42;;;;;;;3.13;1.63;;;;;;;;;;5023941;28;20128;-45
2021/05/09 05:54:09;;;;;;;3.40;2.28;;;;;;;;;;5023890;28;20128;-44
2021/05/09 05:56:35;;;;;;;1.67;1.33;;;;;;;;;;5028324;28;20144;-43
2021/05/09 05:59:02;;;;;;;2.05;1.80;;;;;;;;;;5027002;28;20038;-43
2021/05/09 06:01:28;;;;;;;1.60;1.48;;;;;;;;;;5016926;28;20045;-43
2021/05/09 06:03:55;;;;;;;1.35;1.35;;;;;;;;;;5023280;28;20125;-44
2021/05/09 06:06:21;;;;;;;2.67;1.48;;;;;;;;;;5020247;28;20445;-42
2021/05/09 06:08:51;;;;;;;4.53;1.70;;;;;;;;;;5031078;28;20092;-44
2021/05/09 06:11:18;;;;;;;1.38;1.38;;;;;;;;;;5026663;28;20128;-43
2021/05/09 06:13:45;;;;;;;2.63;1.70;;;;;;;;;;5028517;28;20041;-43
2021/05/09 06:16:12;;;;;;;2.90;1.10;;;;;;;;;;5020421;28;20034;-45
2021/05/09 06:18:39;;;;;;;4.10;1.38;;;;;;;;;;5019552;28;20048;-44
2021/05/09 06:21:05;;;;;;;7.90;1.30;;;;;;;;;;5030235;28;20385;-43
2021/05/09 06:23:32;;;;;;;1.63;1.48;;;;;;;;;;5029786;28;20481;-43
2021/05/09 06:25:59;;;;;;;4.10;1.45;;;;;;;;;;5022355;28;20029;-44
2021/05/09 06:28:26;;;;;;;1.55;1.33;;;;;;;;;;5029815;28;20045;-46
2021/05/09 06:30:53;;;;;;;3.28;1.65;;;;;;;;;;5026535;28;20095;-43
2021/05/09 06:33:22;;;;;;;2.92;1.38;;;;;;;;;;5029554;28;20057;-42
2021/05/09 06:35:49;;;;;;;1.05;1.05;;;;;;;;;;5029982;28;20037;-43
2021/05/09 06:38:15;;;;;;;2.00;1.63;;;;;;;;;;5026438;28;20033;-42
2021/05/09 06:40:42;;;;;;;2.95;1.35;;;;;;;;;;5024363;28;20041;-47
2021/05/09 06:43:08;;;;;;;3.03;1.13;;;;;;;;;;5019699;28;20735;-42
2021/05/09 06:45:35;;;;;;;1.08;1.08;;;;;;;;;;5027918;28;20529;-43
2021/05/09 06:48:07;;;;;;;3.08;1.38;;;;;;;;;;5027568;28;20038;-43
2021/05/09 06:50:34;;;;;;;4.20;1.63;;;;;;;;;;5028257;28;20445;-44
2021/05/09 06:53:02;;;;;;;2.80;1.10;;;;;;;;;;5015756;28;20133;-43
2021/05/09 06:55:29;;;;;;;2.55;1.15;;;;;;;;;;5026542;28;20127;-43
2021/05/09 06:57:56;;;;;;;3.08;1.20;;;;;;;;;;5029121;28;20040;-44
2021/05/09 07:00:25;;;;;;;3.13;1.85;;;;;;;;;;5029146;28;20490;-44
2021/05/09 07:02:52;;;;;;;2.60;0.98;;;;;;;;;;5027686;28;20033;-44
2021/05/09 07:05:20;;;;;;;2.10;1.10;;;;;;;;;;5015314;28;20044;-43
2021/05/09 07:07:56;;;;;;;2.15;1.10;;;;;;;;;;5023926;28;20049;-47
2021/05/09 07:10:26;;;;;;;1.80;1.20;;;;;;;;;;5024525;28;20037;-46
2021/05/09 07:12:56;;;;;;;1.20;1.20;;;;;;;;;;5017262;28;20421;-45
2021/05/09 07:15:44;;;;;;;2.50;1.40;;;;;;;;;;5023763;28;20080;-42
2021/05/09 07:20:39;;;;;;;3.28;2.22;;;;;;;;;;5024991;28;20045;-45
2021/05/09 07:23:07;;;;;;;3.08;1.45;;;;;;;;;;5018334;28;20041;-44
2021/05/09 07:25:35;;;;;;;4.30;1.08;;;;;;;;;;5025041;28;20041;-44
2021/05/09 07:28:05;;;;;;;1.58;1.08;;;;;;;;;;5023874;28;20032;-42
2021/05/09 07:30:33;;;;;;;3.47;1.52;;;;;;;;;;5013743;28;20069;-43
2021/05/09 07:32:59;;;;;;;1.23;1.13;;;;;;;;;;5028322;28;20525;-44
2021/05/09 07:35:26;;;;;;;1.17;1.00;;;;;;;;;;5027093;28;20038;-46
2021/05/09 07:37:52;;;;;;;1.20;0.90;;;;;;;;;;5029370;28;20381;-46
2021/05/09 07:40:20;;;;;;;3.85;1.35;;;;;;;;;;5027162;28;20038;-43
2021/05/09 07:42:46;;;;;;;1.67;1.00;;;;;;;;;;5028422;28;20076;-44
2021/05/09 07:45:21;;;;;;;2.72;1.38;;;;;;;;;;5029365;28;20065;-44
2021/05/09 07:47:47;;;;;;;1.60;1.00;;;;;;;;;;5027682;28;20405;-46
2021/05/09 07:50:15;;;;;;;1.20;1.10;;;;;;;;;;5029933;28;20107;-43
2021/05/09 07:52:46;;;;;;;5.05;1.02;;;;;;;;;;5027447;28;20473;-45
2021/05/09 07:55:14;;;;;;;2.22;0.82;;;;;;;;;;5027327;28;20037;-47
2021/05/09 07:57:43;;;;;;;1.42;0.80;;;;;;;;;;5035807;28;20046;-46
2021/05/09 08:00:15;;;;;;;1.42;0.85;;;;;;;;;;5029011;28;20072;-43
2021/05/09 08:02:44;;;;;;;1.65;1.48;;;;;;;;;;5012914;28;20045;-48
2021/05/09 08:05:11;;;;;;;0.98;0.80;;;;;;;;;;5029643;28;20057;-44
2021/05/09 08:07:53;;;;;;;2.13;0.90;;;;;;;;;;5036765;28;20397;-48
2021/05/09 08:10:20;;;;;;;;;;;;;;;;;;5036482;28;20041;-42
2021/05/09 08:12:47;;;;;;;2.53;0.90;;;;;;;;;;5031472;28;19974;-44
2021/05/09 08:15:18;;;;;;;1.75;0.90;;;;;;;;;;5030450;28;20048;-43
2021/05/09 08:17:46;;;;;;;0.80;0.80;;;;;;;;;;5032777;28;20041;-43
2021/05/09 08:20:13;;;;;;;1.70;0.90;;;;;;;;;;5029002;28;20042;-44
2021/05/09 08:22:40;;;;;;;1.23;0.90;;;;;;;;;;5016035;28;20046;-46
2021/05/09 08:25:07;;;;;;;0.95;0.75;;;;;;;;;;5032685;28;20881;-44
2021/05/09 08:27:34;;;;;;;2.05;1.00;;;;;;;;;;5026016;28;20072;-46
2021/05/09 08:30:03;;;;;;;1.73;0.80;;;;;;;;;;5023733;28;20140;-44
2021/05/09 08:32:30;;;;;;;0.70;0.70;;;;;;;;;;5026630;28;20045;-43
2021/05/09 08:35:02;;;;;;;2.58;0.70;;;;;;;;;;5016473;28;20641;-46
2021/05/09 08:37:32;;;;;;;0.98;0.80;;;;;;;;;;5032123;28;20041;-47
2021/05/09 08:39:59;;;;;;;0.70;0.70;;;;;;;;;;5030754;28;20092;-45
2021/05/09 08:42:28;;;;;;;2.33;0.90;;;;;;;;;;5021854;28;20049;-44
2021/05/09 08:44:57;;;;;;;0.88;0.63;;;;;;;;;;5025597;28;20061;-46
2021/05/09 08:47:39;;;;;;;1.23;0.77;;;;;;;;;;5018818;28;20049;-45
2021/05/09 08:50:07;;;;;;;0.73;0.70;;;;;;;;;;5018357;28;20555;-43
2021/05/09 08:52:36;;;;;;;0.70;0.70;;;;;;;;;;5025976;28;20065;-45
2021/05/09 08:55:06;;;;;;;0.95;0.60;;;;;;;;;;5015875;28;20033;-44
2021/05/09 08:57:35;;;;;;;2.92;0.90;;;;;;;;;;5031659;28;20037;-45
2021/05/09 09:00:06;;;;;;;0.80;0.63;;;;;;;;;;5020858;28;20072;-43
2021/05/09 09:02:53;;;;;;;0.73;0.73;;;;;;;;;;5030231;28;20036;-44
2021/05/09 09:05:32;;;;;;;1.77;0.60;;;;;;;;;;5031218;28;20513;-45
2021/05/09 09:07:59;;;;;;;0.98;0.82;;;;;;;;;;5032034;28;20103;-44
2021/05/09 09:10:30;;;;;;;0.88;0.65;;;;;;;;;;5032391;28;20040;-44
2021/05/09 09:13:01;;;;;;;0.60;0.60;;;;;;;;;;5031713;28;20145;-44
2021/05/09 09:15:47;;;;;;;1.40;0.73;;;;;;;;;;5018598;28;20397;-44
2021/05/09 09:18:44;;;;;;;3.53;0.70;;;;;;;;;;5038237;28;20315;-44
2021/05/09 09:21:19;;;;;;;0.93;0.60;;;;;;;;;;5026370;28;20140;-44
2021/05/09 09:23:47;;;;;;;2.00;0.60;;;;;;;;;;5026676;28;20049;-44
2021/05/09 09:26:31;;;;;;;0.70;0.70;;;;;;;;;;5025533;28;20046;-44
2021/05/09 09:29:00;;;;;;;1.70;0.70;;;;;;;;;;5024731;28;20045;-44
2021/05/09 09:31:35;;;;;;;0.60;0.60;;;;;;;;;;5020090;28;20568;-44
2021/05/09 09:34:04;;;;;;;1.73;0.70;;;;;;;;;;5022463;28;20234;-44
2021/05/09 09:36:31;;;;;;;0.60;0.60;;;;;;;;;;5025766;28;20064;-44
2021/05/09 09:38:59;;;;;;;0.98;0.60;;;;;;;;;;5032812;28;20511;-44
2021/05/09 09:41:26;;;;;;;0.73;0.73;;;;;;;;;;5026465;28;20580;-43
2021/05/09 09:44:07;;;;;;;0.75;0.60;;;;;;;;;;5006103;28;20073;-43
2021/05/09 09:46:38;;;;;;;1.08;0.60;;;;;;;;;;5024603;28;20503;-45
2021/05/09 09:49:30;;;;;;;5.05;0.80;;;;;;;;;;5022712;28;20874;-44
2021/05/09 09:51:57;;;;;;;1.48;0.60;;;;;;;;;;5026259;28;20401;-46
2021/05/09 09:54:46;;;;;;;0.60;0.60;;;;;;;;;;5007917;28;20039;-44
2021/05/09 09:57:24;;;;;;;2.10;0.60;;;;;;;;;;5021080;28;20044;-44
2021/05/09 10:00:12;;;;;;;1.90;0.60;;;;;;;;;;5020983;28;20457;-47
2021/05/09 10:02:39;;;;;;;2.72;0.90;;;;;;;;;;5021520;28;20056;-45
2021/05/09 10:05:07;;;;;;;2.92;0.70;;;;;;;;;;5016658;28;20083;-43
2021/05/09 10:07:34;;;;;;;2.50;0.60;;;;;;;;;;5017736;28;20046;-46
2021/05/09 10:10:02;;;;;;;0.60;0.60;;;;;;;;;;5025956;28;20041;-44
2021/05/09 10:12:29;;;;;;;1.15;0.60;;;;;;;;;;5027379;28;20383;-44
2021/05/09 10:14:56;;;;;;;2.55;0.80;;;;;;;;;;5023008;28;20517;-44
2021/05/09 10:17:23;;;;;;;4.78;0.70;;;;;;;;;;5031021;28;20029;-45
2021/05/09 10:19:50;;;;;;;2.10;0.80;;;;;;;;;;5025404;28;20049;-44
2021/05/09 10:22:30;;;;;;;1.58;1.48;;;;;;;;;;5027564;28;20406;-44
2021/05/09 10:24:59;;;;;;;1.17;0.60;;;;;;;;;;5026799;28;20040;-46
2021/05/09 10:27:38;;;;;;;0.70;0.70;;;;;;;;;;5027306;28;20150;-44
2021/05/09 10:30:08;;;;;;;0.60;0.60;;;;;;;;;;5023620;28;20550;-44
2021/05/09 10:32:34;;;;;;;2.47;1.52;;;;;;;;;;5027997;28;20069;-45
2021/05/09 10:35:03;;;;;;;1.23;0.60;;;;;;;;;;5029590;28;20076;-43
2021/05/09 10:37:38;;;;;;;0.60;0.60;;;;;;;;;;5026209;28;20532;-45
2021/05/09 10:40:18;;;;;;;0.85;0.60;;;;;;;;;;5026462;28;20077;-44
2021/05/09 10:42:45;;;;;;;0.70;0.70;;;;;;;;;;5028162;28;20038;-45
2021/05/09 10:45:26;;;;;;;0.90;0.60;;;;;;;;;;5023546;28;20033;-46
2021/05/09 10:48:12;;;;;;;0.57;0.57;;;;;;;;;;5031526;28;20041;-44
2021/05/09 10:50:43;;;;;;;1.90;0.60;;;;;;;;;;5028788;28;20036;-44
2021/05/09 10:53:29;;;;;;;0.60;0.60;;;;;;;;;;5029320;28;20041;-45
2021/05/09 10:55:57;;;;;;;1.35;0.70;;;;;;;;;;5027150;28;20061;-44
2021/05/09 10:58:41;;;;;;;0.50;0.50;;;;;;;;;;5017729;28;20040;-47
2021/05/09 11:01:07;;;;;;;0.60;0.60;;;;;;;;;;5028531;28;20033;-43
2021/05/09 11:03:34;;;;;;;0.60;0.60;;;;;;;;;;5026250;28;20030;-46
2021/05/09 11:06:13;;;;;;;2.83;0.60;;;;;;;;;;5028615;28;20033;-45
2021/05/09 11:08:44;;;;;;;1.02;0.60;;;;;;;;;;5029670;28;20053;-47
2021/05/09 11:11:12;;;;;;;0.70;0.50;;;;;;;;;;5028172;28;20037;-45
2021/05/09 11:14:00;;;;;;;0.50;0.50;;;;;;;;;;5012525;28;20401;-44
2021/05/09 11:16:28;;;;;;;1.00;0.60;;;;;;;;;;5029502;28;20037;-48
2021/05/09 11:18:59;;;;;;;1.45;0.60;;;;;;;;;;5026523;28;20060;-47
2021/05/09 11:21:31;;;;;;;1.15;0.63;;;;;;;;;;5012084;28;20490;-48
2021/05/09 11:23:58;;;;;;;0.60;0.57;;;;;;;;;;5024262;28;21122;-48
2021/05/09 11:26:42;;;;;;;0.52;0.47;;;;;;;;;;5025915;28;20450;-44
2021/05/09 11:29:12;;;;;;;1.88;0.60;;;;;;;;;;5016643;28;20050;-44
2021/05/09 11:31:40;;;;;;;0.60;0.60;;;;;;;;;;5023466;28;20037;-43
2021/05/09 11:34:08;;;;;;;0.50;0.50;;;;;;;;;;5013193;28;20038;-47
2021/05/09 11:36:38;;;;;;;1.58;0.50;;;;;;;;;;5019544;28;20550;-44
2021/05/09 11:39:08;;;;;;;0.73;0.50;;;;;;;;;;5024274;28;20033;-45
2021/05/09 11:41:48;;;;;;;0.50;0.50;;;;;;;;;;5032494;28;20128;-44
2021/05/09 11:44:20;;;;;;;0.50;0.50;;;;;;;;;;5033263;28;20033;-45
2021/05/09 11:46:47;;;;;;;4.38;0.85;;;;;;;;;;5031896;28;20038;-45
2021/05/09 11:49:15;;;;;;;0.85;0.50;;;;;;;;;;5019160;28;20141;-43
2021/05/09 11:51:51;;;;;;;0.50;0.50;;;;;;;;;;5027317;28;20061;-46
2021/05/09 11:54:23;;;;;;;1.85;0.50;;;;;;;;;;5025515;28;20740;-45
2021/05/09 11:56:49;;;;;;;0.52;0.40;;;;;;;;;;5033179;28;20044;-46
2021/05/09 11:59:36;;;;;;;0.40;0.40;;;;;;;;;;5030584;28;20087;-44
2021/05/09 12:02:18;;;;;;;0.50;0.50;;;;;;;;;;5031161;28;20065;-48
2021/05/09 12:04:49;;;;;;;1.08;0.50;;;;;;;;;;5024045;28;20061;-45
2021/05/09 12:07:23;;;;;;;0.40;0.40;;;;;;;;;;5025024;28;20038;-48
2021/05/09 12:10:00;;;;;;;0.82;0.50;;;;;;;;;;5027429;28;20033;-44
2021/05/09 12:12:28;;;;;;;0.47;0.47;;;;;;;;;;5030623;28;20708;-46
2021/05/09 12:14:56;;;;;;;0.50;0.50;;;;;;;;;;5023885;28;20037;-45
2021/05/09 12:17:26;;;;;;;2.70;0.40;;;;;;;;;;5033044;28;20578;-45
2021/05/09 12:19:56;;;;;;;0.40;0.40;;;;;;;;;;5028083;28;20037;-43
2021/05/09 12:22:37;;;;;;;0.45;0.45;;;;;;;;;;5030263;28;20042;-46
2021/05/09 12:25:05;;;;;;;0.40;0.40;;;;;;;;;;5022034;28;20475;-45
2021/05/09 12:27:44;;;;;;;2.05;0.43;;;;;;;;;;5028429;28;20685;-43
2021/05/09 12:30:11;;;;;;;0.40;0.40;;;;;;;;;;5013269;28;20049;-44
2021/05/09 12:32:40;;;;;;;0.85;0.50;;;;;;;;;;5031610;28;20045;-44
2021/05/09 12:35:08;;;;;;;0.75;0.50;;;;;;;;;;5030917;28;20057;-45
2021/05/09 12:37:55;;;;;;;0.43;0.43;;;;;;;;;;5030966;28;20040;-42
2021/05/09 12:40:37;;;;;;;0.40;0.40;;;;;;;;;;5028100;28;20674;-43
2021/05/09 12:43:03;;;;;;;1.95;0.50;;;;;;;;;;5026841;28;20037;-45
2021/05/09 12:45:36;;;;;;;0.68;0.40;;;;;;;;;;5019447;28;20073;-44
2021/05/09 12:48:05;;;;;;;0.40;0.40;;;;;;;;;;5025391;28;20476;-42
2021/05/09 12:50:57;;;;;;;1.00;0.40;;;;;;;;;;5018275;28;20048;-43
2021/05/09 12:53:35;;;;;;;0.30;0.30;;;;;;;;;;5030022;28;20084;-44
2021/05/09 12:56:17;;;;;;;0.40;0.40;;;;;;;;;;5028967;28;20056;-45
2021/05/09 12:59:03;;;;;;;0.43;0.40;;;;;;;;;;5026290;28;20033;-46
2021/05/09 13:01:30;;;;;;;0.30;0.30;;;;;;;;;;5027700;28;20033;-48
2021/05/09 13:03:57;;;;;;;0.35;0.35;;;;;;;;;;5030965;28;20198;-44
2021/05/09 13:06:24;;;;;;;0.40;0.40;;;;;;;;;;5035581;28;20045;-44
2021/05/09 13:08:51;;;;;;;1.38;0.40;;;;;;;;;;5030621;28;20547;-43
2021/05/09 13:11:17;;;;;;;0.80;0.40;;;;;;;;;;5024749;28;20045;-44
2021/05/09 13:13:43;;;;;;;0.40;0.40;;;;;;;;;;5025619;28;20045;-43
2021/05/09 13:16:10;;;;;;;1.52;0.40;;;;;;;;;;5019603;28;20048;-47
2021/05/09 13:18:36;;;;;;;0.45;0.40;;;;;;;;;;5027398;28;20042;-45
2021/05/09 13:21:03;;;;;;;0.50;0.40;;;;;;;;;;5023367;28;20046;-43
2021/05/09 13:23:30;;;;;;;0.43;0.40;;;;;;;;;;5018525;28;20041;-43
2021/05/09 13:25:56;;;;;;;0.80;0.43;;;;;;;;;;5027565;28;20034;-43
2021/05/09 13:28:22;;;;;;;2.17;0.45;;;;;;;;;;5027133;28;20044;-46
2021/05/09 13:30:49;;;;;;;0.50;0.50;;;;;;;;;;5022674;28;20120;-45
2021/05/09 13:33:16;;;;;;;0.43;0.40;;;;;;;;;;5030496;28;20068;-44
2021/05/09 13:35:42;;;;;;;0.50;0.47;;;;;;;;;;5027160;28;20112;-46
2021/05/09 13:38:09;;;;;;;0.50;0.40;;;;;;;;;;5026916;28;20037;-43
2021/05/09 13:40:35;;;;;;;1.33;0.40;;;;;;;;;;5023537;28;20046;-44
2021/05/09 13:43:03;;;;;;;0.50;0.50;;;;;;;;;;5031877;28;20103;-45
2021/05/09 13:45:31;;;;;;;5.15;0.60;;;;;;;;;;5029934;28;20420;-43
2021/05/09 13:47:59;;;;;;;0.60;0.50;;;;;;;;;;5027385;28;20041;-43
2021/05/09 13:50:27;;;;;;;0.40;0.40;;;;;;;;;;5029620;28;20413;-46
2021/05/09 13:52:55;;;;;;;1.75;0.60;;;;;;;;;;5026573;28;20041;-44
2021/05/09 13:55:22;;;;;;;1.00;0.50;;;;;;;;;;5035468;28;20769;-43
2021/05/09 13:57:55;;;;;;;0.82;0.40;;;;;;;;;;5025314;28;20119;-44
2021/05/09 14:00:21;;;;;;;2.13;0.60;;;;;;;;;;5020870;28;20037;-43
2021/05/09 14:02:48;;;;;;;2.15;1.30;;;;;;;;;;5028844;28;20113;-45
2021/05/09 14:05:15;;;;;;;2.95;0.50;;;;;;;;;;5028562;28;20046;-43
2021/05/09 14:07:41;;;;;;;0.40;0.40;;;;;;;;;;5026819;28;20052;-43
2021/05/09 14:10:07;;;;;;;0.40;0.40;;;;;;;;;;5023494;28;20056;-44
2021/05/09 14:12:34;;;;;;;0.90;0.40;;;;;;;;;;5020709;28;20037;-43
2021/05/09 14:15:02;;;;;;;1.55;0.50;;;;;;;;;;5027229;28;20065;-45
2021/05/09 14:17:33;;;;;;;0.82;0.50;;;;;;;;;;5023609;28;20037;-46
2021/05/09 14:20:00;;;;;;;0.50;0.50;;;;;;;;;;5033876;28;20033;-44
2021/05/09 14:22:27;;;;;;;0.70;0.50;;;;;;;;;;5026805;28;20046;-44
2021/05/09 14:24:56;;;;;;;0.50;0.50;;;;;;;;;;5027170;28;20034;-44
2021/05/09 14:27:24;;;;;;;0.60;0.50;;;;;;;;;;5019497;28;20042;-43
2021/05/09 14:29:51;;;;;;;2.03;0.50;;;;;;;;;;5026143;28;20049;-45
2021/05/09 14:32:18;;;;;;;0.68;0.50;;;;;;;;;;5029376;28;20068;-47
2021/05/09 14:34:45;;;;;;;0.90;0.50;;;;;;;;;;5029865;28;20035;-44
2021/05/09 14:37:12;;;;;;;0.52;0.50;;;;;;;;;;5024671;28;20087;-44
2021/05/09 14:39:39;;;;;;;0.90;0.50;;;;;;;;;;5027326;28;20092;-45
2021/05/09 14:42:06;;;;;;;0.95;0.57;;;;;;;;;;5025831;28;20041;-44
2021/05/09 14:44:34;;;;;;;1.80;0.55;;;;;;;;;;5026728;28;20109;-44
2021/05/09 14:47:01;;;;;;;0.50;0.50;;;;;;;;;;5024460;28;20044;-44
2021/05/09 14:49:28;;;;;;;0.68;0.50;;;;;;;;;;5027985;28;20378;-43
2021/05/09 14:51:55;;;;;;;0.60;0.60;;;;;;;;;;5035370;28;20496;-43
2021/05/09 14:54:23;;;;;;;0.90;0.60;;;;;;;;;;5019599;28;20570;-45
2021/05/09 14:56:51;;;;;;;1.88;0.63;;;;;;;;;;5023210;28;20144;-45